Time;durP1;ratioP1;P1;durP2;ratioP2;P2;SDS_P1;SDS_P2;PMS_P1;PMS_P2;Temp;Humidity;BMP_temperature;BMP_pressure;BME280_temperature;BME280_humidity;BME280_pressure;Samples;Min_cycle;Max_cycle;Signal;HPM_P1;HPM_P2
2023/09/27 00:02:57;;;;;;;6.80;5.15;;;;;;;16.00;100.00;100970.88;8275075;28;20038;-62
2023/09/27 00:06:58;;;;;;;6.13;4.70;;;;;;;15.93;100.00;100988.94;8275497;28;20042;-62
2023/09/27 00:10:58;;;;;;;7.03;4.65;;;;;;;15.74;100.00;100974.53;8277115;28;20046;-62
2023/09/27 00:15:01;;;;;;;6.22;4.45;;;;;;;15.64;100.00;100965.63;8278184;28;20045;-63
2023/09/27 00:19:03;;;;;;;7.35;4.95;;;;;;;15.66;100.00;100974.50;8275753;28;20074;-63
2023/09/27 00:23:05;;;;;;;9.15;4.72;;;;;;;15.73;100.00;100978.28;8276732;28;20073;-62
2023/09/27 00:27:06;;;;;;;7.65;4.03;;;;;;;15.69;100.00;100976.91;8266364;28;20042;-63
2023/09/27 00:31:07;;;;;;;6.70;4.38;;;;;;;15.64;100.00;100975.66;8276968;28;20095;-62
2023/09/27 00:35:12;;;;;;;8.40;4.93;;;;;;;15.92;99.76;100981.78;8281251;28;20037;-62
2023/09/27 00:39:12;;;;;;;6.32;4.57;;;;;;;15.59;100.00;100997.94;8276994;28;20076;-63
2023/09/27 00:43:30;;;;;;;8.07;5.00;;;;;;;15.80;98.64;100994.00;8242715;28;20092;-63
2023/09/27 00:47:31;;;;;;;6.55;4.25;;;;;;;15.65;98.13;101002.75;8276761;28;20038;-63
2023/09/27 00:51:32;;;;;;;7.00;4.43;;;;;;;15.63;98.00;101010.25;8279326;28;20089;-62
2023/09/27 00:55:33;;;;;;;5.10;3.92;;;;;;;15.67;97.25;101002.59;8276247;28;20333;-62
2023/09/27 00:59:35;;;;;;;4.57;3.80;;;;;;;15.42;98.37;100998.88;8250308;28;22550;-63
2023/09/27 01:03:36;;;;;;;7.68;4.70;;;;;;;15.55;100.00;101002.03;8276655;28;20038;-63
2023/09/27 01:07:38;;;;;;;7.10;4.78;;;;;;;15.10;100.00;101005.91;8278011;28;20040;-63
2023/09/27 01:11:40;;;;;;;5.13;4.40;;;;;;;15.30;100.00;101013.75;8274984;28;20046;-63
2023/09/27 01:15:41;;;;;;;7.63;4.68;;;;;;;15.36;99.89;101015.81;8277656;28;20061;-63
2023/09/27 01:19:42;;;;;;;6.13;4.03;;;;;;;14.98;100.00;101029.78;8290898;28;20079;-63
2023/09/27 01:23:43;;;;;;;7.80;4.18;;;;;;;15.06;100.00;101016.25;8272337;28;20496;-63
2023/09/27 01:27:45;;;;;;;6.15;4.10;;;;;;;15.26;98.87;101015.06;8273952;28;20041;-63
2023/09/27 01:31:45;;;;;;;10.43;5.20;;;;;;;14.88;100.00;100990.91;8272246;28;20322;-63
2023/09/27 01:35:46;;;;;;;5.45;3.58;;;;;;;14.87;100.00;100994.66;8257791;28;20120;-63
2023/09/27 01:39:46;;;;;;;6.57;3.72;;;;;;;14.84;100.00;101029.50;8276502;28;20070;-63
2023/09/27 01:43:47;;;;;;;5.75;4.18;;;;;;;14.82;100.00;101026.91;8268750;28;20049;-63
2023/09/27 01:47:48;;;;;;;6.35;4.43;;;;;;;14.68;100.00;101027.47;8261356;28;20377;-63
2023/09/27 01:51:49;;;;;;;6.95;4.28;;;;;;;14.91;100.00;101023.25;8230912;28;20076;-63
2023/09/27 01:55:49;;;;;;;6.22;4.15;;;;;;;14.87;100.00;101013.72;8275037;28;20038;-63
2023/09/27 01:59:50;;;;;;;6.53;4.78;;;;;;;14.87;100.00;101027.31;8276093;28;20050;-62
2023/09/27 02:03:50;;;;;;;6.18;4.60;;;;;;;14.97;100.00;101038.97;8271490;28;20411;-62
2023/09/27 02:07:51;;;;;;;5.20;4.32;;;;;;;14.76;100.00;101030.25;8276107;28;20068;-61
2023/09/27 02:11:52;;;;;;;7.65;5.60;;;;;;;14.69;100.00;101040.06;8273411;28;20507;-61
2023/09/27 02:15:55;;;;;;;10.07;5.25;;;;;;;14.62;100.00;101032.66;8276316;28;20478;-62
2023/09/27 02:19:56;;;;;;;7.22;5.10;;;;;;;14.64;100.00;101042.38;8274733;28;20041;-62
2023/09/27 02:23:56;;;;;;;9.93;4.85;;;;;;;14.63;100.00;101027.06;8273617;28;20050;-62
2023/09/27 02:27:57;;;;;;;9.80;6.32;;;;;;;14.56;100.00;101036.00;8268030;28;20581;-62
2023/09/27 02:31:57;;;;;;;6.90;4.63;;;;;;;14.55;100.00;101021.53;8253520;28;20587;-63
2023/09/27 02:35:58;;;;;;;7.50;5.43;;;;;;;14.52;100.00;101030.00;8262340;28;20938;-61
2023/09/27 02:39:58;;;;;;;6.75;5.07;;;;;;;14.49;100.00;101026.75;8273271;28;20054;-61
2023/09/27 02:43:59;;;;;;;5.32;4.78;;;;;;;14.14;100.00;101005.72;8275872;28;20064;-62
2023/09/27 02:48:01;;;;;;;10.80;6.10;;;;;;;14.16;100.00;100987.41;8230505;28;20128;-61
2023/09/27 02:52:01;;;;;;;9.10;5.88;;;;;;;14.17;100.00;100990.97;8257567;28;20561;-63
2023/09/27 02:56:05;;;;;;;7.28;4.65;;;;;;;14.06;100.00;100986.59;8244058;28;20042;-62
2023/09/27 03:00:06;;;;;;;6.47;5.18;;;;;;;14.12;100.00;100994.13;8273031;28;20046;-61
2023/09/27 03:04:07;;;;;;;9.02;5.60;;;;;;;14.16;100.00;101006.44;8273139;28;20038;-61
2023/09/27 03:08:08;;;;;;;9.07;6.22;;;;;;;14.21;100.00;101011.44;8275558;28;20044;-61
2023/09/27 03:12:08;;;;;;;9.35;5.65;;;;;;;14.19;100.00;101008.00;8257299;28;20034;-62
2023/09/27 03:16:10;;;;;;;7.68;5.63;;;;;;;14.23;100.00;101002.13;8273618;28;20150;-62
2023/09/27 03:20:19;;;;;;;6.80;5.72;;;;;;;14.10;100.00;100988.00;8277661;28;20048;-62
2023/09/27 03:24:19;;;;;;;8.05;6.32;;;;;;;14.11;100.00;100977.97;8266337;28;20038;-62
2023/09/27 03:28:21;;;;;;;7.13;5.78;;;;;;;14.15;100.00;100990.28;8276009;28;20113;-62
2023/09/27 03:32:21;;;;;;;8.27;6.35;;;;;;;14.17;100.00;100983.69;8257557;28;20030;-63
2023/09/27 03:36:22;;;;;;;8.35;5.85;;;;;;;14.11;100.00;100989.72;8276511;28;20046;-62
2023/09/27 03:40:23;;;;;;;9.38;5.88;;;;;;;14.11;100.00;100989.72;8258282;28;20411;-62
2023/09/27 03:44:24;;;;;;;14.43;6.47;;;;;;;14.10;100.00;100996.19;8279427;28;20088;-62
2023/09/27 03:48:26;;;;;;;10.63;6.43;;;;;;;14.13;100.00;100987.72;8282186;28;20556;-62
2023/09/27 03:52:26;;;;;;;6.53;5.28;;;;;;;14.30;100.00;100983.34;8233309;28;20313;-63
2023/09/27 03:56:27;;;;;;;8.15;5.60;;;;;;;14.34;100.00;100991.06;8275924;28;20076;-62
2023/09/27 04:00:27;;;;;;;7.90;6.10;;;;;;;14.29;100.00;100987.94;8270922;28;20081;-62
2023/09/27 04:04:28;;;;;;;7.60;5.38;;;;;;;14.18;100.00;100993.53;8279569;28;20325;-62
2023/09/27 04:08:28;;;;;;;7.05;5.55;;;;;;;14.07;100.00;100992.88;8253712;28;20142;-63
2023/09/27 04:12:29;;;;;;;8.90;5.85;;;;;;;14.11;100.00;100992.44;8230408;28;20066;-63
2023/09/27 04:16:32;;;;;;;7.88;5.97;;;;;;;14.13;100.00;101001.31;8240976;28;20084;-62
2023/09/27 04:20:33;;;;;;;12.45;5.93;;;;;;;14.08;100.00;101006.34;8272052;28;20040;-60
2023/09/27 04:24:33;;;;;;;7.55;5.47;;;;;;;14.07;100.00;101007.34;8277875;28;20527;-61
2023/09/27 04:28:34;;;;;;;9.05;6.03;;;;;;;14.06;100.00;101004.78;8268306;28;20042;-60
2023/09/27 04:32:36;;;;;;;7.70;5.72;;;;;;;14.08;100.00;101011.78;8286533;28;20054;-61
2023/09/27 04:36:37;;;;;;;7.40;5.22;;;;;;;14.01;100.00;100999.78;8267641;28;20498;-59
2023/09/27 04:40:37;;;;;;;8.82;5.43;;;;;;;13.97;100.00;100992.97;8276166;28;20046;-60
2023/09/27 04:44:38;;;;;;;9.93;6.65;;;;;;;13.82;100.00;100980.88;8271983;28;20081;-60
2023/09/27 04:48:38;;;;;;;9.82;6.40;;;;;;;13.85;100.00;100995.00;8267650;28;20068;-61
2023/09/27 04:52:40;;;;;;;10.43;6.45;;;;;;;13.77;100.00;101003.06;8269676;28;20077;-62
2023/09/27 04:56:40;;;;;;;10.30;6.18;;;;;;;13.67;100.00;100995.94;8277621;28;20050;-62
2023/09/27 05:00:40;;;;;;;7.15;5.95;;;;;;;13.65;100.00;100992.50;8269893;28;20046;-61
2023/09/27 05:04:41;;;;;;;9.23;6.53;;;;;;;13.65;100.00;100987.06;8264701;28;20049;-61
2023/09/27 05:08:41;;;;;;;11.43;6.43;;;;;;;13.73;100.00;100995.34;8274515;28;20065;-60
2023/09/27 05:12:42;;;;;;;9.13;6.40;;;;;;;13.55;100.00;100980.81;8260826;28;20415;-60
2023/09/27 05:16:43;;;;;;;7.78;6.13;;;;;;;13.60;100.00;100982.09;8259041;28;20046;-61
2023/09/27 05:20:43;;;;;;;9.07;7.15;;;;;;;13.69;100.00;100983.03;8264684;28;20590;-61
2023/09/27 05:24:44;;;;;;;8.82;5.80;;;;;;;13.68;100.00;100973.19;8259863;28;20148;-61
2023/09/27 05:28:45;;;;;;;8.25;6.65;;;;;;;13.72;100.00;100977.31;8270831;28;20430;-61
2023/09/27 05:32:46;;;;;;;8.52;6.00;;;;;;;13.81;100.00;100992.72;8275096;28;20097;-63
2023/09/27 05:36:46;;;;;;;10.05;5.97;;;;;;;13.97;100.00;100992.97;8259517;28;20122;-63
2023/09/27 05:40:47;;;;;;;8.68;6.25;;;;;;;14.05;100.00;101006.63;8257633;28;20041;-63
2023/09/27 05:44:47;;;;;;;10.50;6.80;;;;;;;14.16;100.00;101009.16;8269188;28;20048;-62
2023/09/27 05:48:48;;;;;;;10.95;6.20;;;;;;;14.46;100.00;101019.75;8269174;28;20080;-62
2023/09/27 05:52:48;;;;;;;9.25;5.78;;;;;;;14.58;100.00;101025.84;8272861;28;20527;-67
2023/09/27 05:56:51;;;;;;;9.60;5.82;;;;;;;14.65;100.00;101011.47;8276709;28;20096;-63
2023/09/27 06:00:52;;;;;;;8.95;5.53;;;;;;;14.56;100.00;100993.34;8271168;28;20052;-61
2023/09/27 06:04:53;;;;;;;8.45;5.82;;;;;;;14.58;100.00;100987.72;8277538;28;20039;-60
2023/09/27 06:08:54;;;;;;;7.40;5.65;;;;;;;14.75;100.00;101012.22;8283759;28;20058;-60
2023/09/27 06:12:55;;;;;;;11.30;5.53;;;;;;;15.01;100.00;101010.41;8265548;28;20049;-60
2023/09/27 06:16:57;;;;;;;12.18;5.43;;;;;;;15.07;100.00;101023.41;8265154;28;20046;-61
2023/09/27 06:20:58;;;;;;;7.93;5.32;;;;;;;15.06;100.00;101032.59;8276266;28;20423;-60
2023/09/27 06:24:58;;;;;;;8.85;5.53;;;;;;;15.10;100.00;101024.97;8264399;28;20179;-60
2023/09/27 06:28:59;;;;;;;9.45;5.38;;;;;;;15.10;100.00;101033.97;8263890;28;20598;-60
2023/09/27 06:32:59;;;;;;;10.70;6.25;;;;;;;15.12;100.00;101040.16;8277382;28;20077;-60
2023/09/27 06:36:59;;;;;;;9.68;5.35;;;;;;;15.24;100.00;101041.59;8265762;28;20048;-61
2023/09/27 06:41:01;;;;;;;8.38;5.35;;;;;;;15.19;100.00;101035.78;8279470;28;20116;-62
2023/09/27 06:45:02;;;;;;;6.63;5.35;;;;;;;15.19;100.00;101015.88;8263864;28;20573;-63
2023/09/27 06:49:03;;;;;;;10.85;5.75;;;;;;;15.24;100.00;101006.19;8266978;28;20046;-63
2023/09/27 06:53:04;;;;;;;14.23;5.72;;;;;;;15.32;100.00;101005.41;8272500;28;20042;-63
2023/09/27 06:57:05;;;;;;;8.43;5.20;;;;;;;15.44;100.00;101010.44;8272180;28;20049;-64
2023/09/27 07:01:07;;;;;;;8.57;5.45;;;;;;;15.81;100.00;101021.09;8268336;28;20499;-63
2023/09/27 07:05:09;;;;;;;8.10;4.95;;;;;;;16.05;99.79;101037.59;8275917;28;20040;-63
2023/09/27 07:09:16;;;;;;;9.35;4.80;;;;;;;16.22;99.23;101038.53;8269698;28;20046;-63
2023/09/27 07:13:19;;;;;;;9.40;5.00;;;;;;;16.42;99.42;101029.91;8262488;28;20380;-63
2023/09/27 07:17:21;;;;;;;11.27;5.10;;;;;;;16.55;98.63;101023.97;8273855;28;20030;-63
2023/09/27 07:21:23;;;;;;;5.15;4.63;;;;;;;16.70;98.53;101035.97;8269284;28;20042;-63
2023/09/27 07:25:24;;;;;;;8.23;4.93;;;;;;;16.82;99.19;101042.81;8269138;28;20034;-63
2023/09/27 07:29:24;;;;;;;7.25;5.30;;;;;;;16.91;98.73;101050.00;8270285;28;20073;-63
2023/09/27 07:33:25;;;;;;;11.48;5.53;;;;;;;17.01;98.72;101039.78;8272118;28;20048;-63
2023/09/27 07:37:25;;;;;;;13.68;6.05;;;;;;;17.07;99.18;101036.38;8270371;28;20050;-64
2023/09/27 07:41:27;;;;;;;10.52;6.47;;;;;;;17.25;99.23;101017.94;8270511;28;20073;-63
2023/09/27 07:45:31;;;;;;;8.13;5.88;;;;;;;17.41;97.77;101017.91;8267538;28;20038;-63
2023/09/27 07:49:31;;;;;;;7.05;4.88;;;;;;;17.49;97.35;101026.16;8266321;28;20035;-64
2023/09/27 07:53:32;;;;;;;8.32;5.80;;;;;;;17.64;95.98;101029.88;8269351;28;20034;-64
2023/09/27 07:57:32;;;;;;;9.70;5.50;;;;;;;17.76;97.60;101023.03;8273180;28;20049;-63
2023/09/27 08:01:33;;;;;;;11.35;5.95;;;;;;;18.12;96.27;100996.94;8268560;28;20385;-63
2023/09/27 08:05:42;;;;;;;8.80;5.55;;;;;;;18.43;94.22;101005.19;8267640;28;20049;-63
2023/09/27 08:09:42;;;;;;;7.25;5.10;;;;;;;18.80;91.81;101019.00;8266992;28;20130;-63
2023/09/27 08:13:43;;;;;;;9.68;4.57;;;;;;;18.83;87.81;101008.53;8270643;28;20038;-63
2023/09/27 08:17:45;;;;;;;10.10;4.80;;;;;;;18.65;90.21;101009.84;8267935;28;20088;-61
2023/09/27 08:21:46;;;;;;;9.23;4.53;;;;;;;19.14;89.71;100990.13;8268346;28;20507;-61
2023/09/27 08:25:48;;;;;;;5.88;4.25;;;;;;;19.59;87.50;100985.63;8265768;28;20523;-61
2023/09/27 08:29:48;;;;;;;7.25;4.55;;;;;;;19.75;86.08;100982.69;8267484;28;20125;-62
2023/09/27 08:33:48;;;;;;;4.78;3.70;;;;;;;20.03;83.15;100986.53;8266772;28;20050;-62
2023/09/27 08:37:49;;;;;;;8.05;3.70;;;;;;;20.07;83.23;100979.59;8274836;28;20046;-61
2023/09/27 08:41:50;;;;;;;6.97;3.63;;;;;;;20.20;82.43;100963.31;8269562;28;20125;-61
2023/09/27 08:45:51;;;;;;;5.40;3.72;;;;;;;20.20;83.93;100963.31;8267205;28;20038;-61
2023/09/27 08:49:52;;;;;;;7.53;3.55;;;;;;;20.24;83.41;100950.91;8265801;28;20615;-61
2023/09/27 08:53:53;;;;;;;5.00;3.30;;;;;;;20.60;81.28;100940.75;8267038;28;20491;-61
2023/09/27 08:57:55;;;;;;;7.57;4.03;;;;;;;21.03;80.37;100942.50;8266475;28;20523;-61
2023/09/27 09:01:57;;;;;;;5.78;3.55;;;;;;;21.42;79.13;100953.84;8269522;28;20484;-62
2023/09/27 09:05:58;;;;;;;5.30;3.10;;;;;;;21.64;77.10;100944.47;8246108;28;20038;-61
2023/09/27 09:09:59;;;;;;;5.60;2.58;;;;;;;22.25;74.23;100939.94;8229871;28;20153;-62
2023/09/27 09:14:04;;;;;;;4.22;2.67;;;;;;;22.94;73.42;100934.00;8253495;28;20078;-62
2023/09/27 09:18:06;;;;;;;3.55;2.55;;;;;;;23.80;71.89;100927.41;8253774;28;20046;-62
2023/09/27 09:22:08;;;;;;;6.70;2.55;;;;;;;25.23;67.02;100930.50;8249039;28;20386;-62
2023/09/27 09:26:10;;;;;;;6.47;2.45;;;;;;;25.96;63.51;100924.06;8252933;28;20603;-63
2023/09/27 09:30:11;;;;;;;4.05;2.55;;;;;;;26.33;62.98;100923.84;8250371;28;20046;-61
2023/09/27 09:34:12;;;;;;;4.28;2.28;;;;;;;26.91;61.89;100903.81;8254135;28;20042;-62
2023/09/27 09:38:24;;;;;;;3.10;2.28;;;;;;;27.04;60.12;100911.97;8251602;28;20050;-62
2023/09/27 09:42:33;;;;;;;4.47;2.35;;;;;;;28.55;56.89;100904.13;8251763;28;20397;-62
2023/09/27 09:46:33;;;;;;;4.40;1.70;;;;;;;28.73;55.33;100900.31;8253883;28;20034;-62
2023/09/27 09:50:35;;;;;;;3.78;1.50;;;;;;;29.09;54.48;100897.09;8250040;28;20038;-62
2023/09/27 09:54:41;;;;;;;4.57;1.95;;;;;;;28.10;55.36;100896.75;8250678;28;20034;-62
2023/09/27 09:59:03;;;;;;;3.33;1.60;;;;;;;28.15;55.35;100896.88;8249571;28;20049;-62
2023/09/27 10:03:07;;;;;;;4.22;1.75;;;;;;;29.59;52.93;100897.94;8258013;28;20054;-62
2023/09/27 10:07:07;;;;;;;2.25;1.65;;;;;;;29.85;51.31;100905.59;8247958;28;20042;-61
2023/09/27 10:11:08;;;;;;;3.42;1.60;;;;;;;30.25;51.29;100889.41;8254489;28;20074;-60
2023/09/27 10:15:10;;;;;;;2.90;1.58;;;;;;;30.17;51.18;100886.22;8251225;28;20050;-60
2023/09/27 10:19:13;;;;;;;3.70;1.73;;;;;;;30.22;50.99;100889.94;8255661;28;20097;-60
2023/09/27 10:23:13;;;;;;;2.15;1.35;;;;;;;30.93;49.46;100882.38;8254599;28;20071;-59
2023/09/27 10:27:13;;;;;;;2.22;1.40;;;;;;;31.81;47.10;100890.91;8256279;28;20034;-59
2023/09/27 10:31:17;;;;;;;3.65;1.52;;;;;;;31.53;46.91;100880.13;8254765;28;20117;-59
2023/09/27 10:35:21;;;;;;;4.50;1.40;;;;;;;31.90;46.78;100883.72;8255494;28;20088;-60
2023/09/27 10:39:22;;;;;;;1.85;1.48;;;;;;;31.96;46.28;100886.28;8253435;28;20180;-59
2023/09/27 10:43:40;;;;;;;3.58;1.58;;;;;;;31.00;46.67;100881.03;8253042;28;20046;-61
2023/09/27 10:47:41;;;;;;;2.75;1.23;;;;;;;30.66;48.31;100870.34;8255230;28;20425;-60
2023/09/27 10:51:43;;;;;;;3.78;1.58;;;;;;;30.44;48.55;100867.59;8255067;28;20042;-59
2023/09/27 10:55:44;;;;;;;2.30;1.45;;;;;;;29.93;49.17;100851.31;8255206;28;20046;-59
2023/09/27 10:59:49;;;;;;;2.85;1.30;;;;;;;29.25;50.91;100854.47;8252300;28;20488;-59
2023/09/27 11:03:58;;;;;;;1.73;1.15;;;;;;;29.90;50.44;100844.31;8251360;28;20038;-59
2023/09/27 11:07:59;;;;;;;3.47;1.63;;;;;;;29.81;50.27;100842.22;8250555;28;20046;-60
2023/09/27 11:11:59;;;;;;;4.40;1.77;;;;;;;29.49;51.64;100839.22;8251329;28;20053;-59
2023/09/27 11:16:18;;;;;;;3.20;1.67;;;;;;;29.16;52.18;100833.72;8253338;28;20415;-59
2023/09/27 11:20:20;;;;;;;5.43;1.30;;;;;;;28.85;53.14;100831.50;8246463;28;20030;-59
2023/09/27 11:24:22;;;;;;;3.50;1.80;;;;;;;29.23;51.39;100814.88;8252527;28;20042;-63
2023/09/27 11:28:22;;;;;;;1.88;1.30;;;;;;;29.07;51.66;100815.75;8254378;28;20515;-62
2023/09/27 11:32:23;;;;;;;2.60;1.38;;;;;;;28.36;53.17;100813.59;8254227;28;20107;-62
2023/09/27 11:36:24;;;;;;;4.55;1.50;;;;;;;27.79;54.57;100800.72;8264905;28;20415;-63
2023/09/27 11:40:34;;;;;;;5.45;1.58;;;;;;;28.07;53.66;100799.94;8255777;28;20038;-63
2023/09/27 11:44:34;;;;;;;2.72;1.40;;;;;;;29.83;49.83;100801.84;8259690;28;20061;-63
2023/09/27 11:48:35;;;;;;;3.95;1.48;;;;;;;30.47;49.41;100790.84;8257895;28;20057;-63
2023/09/27 11:52:35;;;;;;;2.67;1.65;;;;;;;31.90;49.17;100783.84;8254474;28;20042;-63
2023/09/27 11:56:36;;;;;;;3.60;1.48;;;;;;;33.36;46.37;100786.84;8253423;28;20069;-63
2023/09/27 12:00:36;;;;;;;5.38;2.50;;;;;;;33.56;47.33;100779.25;8257162;28;20102;-64
2023/09/27 12:04:37;;;;;;;3.67;2.10;;;;;;;32.67;48.39;100769.78;8256939;28;20093;-64
2023/09/27 12:08:38;;;;;;;5.22;1.90;;;;;;;31.12;51.24;100769.09;8257498;28;20491;-64
2023/09/27 12:12:39;;;;;;;4.22;1.77;;;;;;;30.18;51.51;100763.22;8257859;28;20042;-63
2023/09/27 12:16:41;;;;;;;3.83;1.50;;;;;;;29.06;53.18;100760.28;8256305;28;20169;-62
2023/09/27 12:20:41;;;;;;;2.10;1.52;;;;;;;29.64;53.17;100758.63;8255699;28;20042;-64
2023/09/27 12:24:42;;;;;;;5.43;1.67;;;;;;;29.78;52.97;100751.56;8254825;28;20084;-63
2023/09/27 12:28:42;;;;;;;4.82;2.05;;;;;;;30.54;51.53;100735.66;8246095;28;20452;-64
2023/09/27 12:32:42;;;;;;;3.47;1.67;;;;;;;29.84;53.00;100732.94;8255508;28;20078;-63
2023/09/27 12:36:43;;;;;;;3.95;1.80;;;;;;;29.94;53.12;100722.75;8254361;28;20049;-64
2023/09/27 12:40:43;;;;;;;3.17;1.70;;;;;;;29.97;51.90;100713.00;8254023;28;20046;-63
2023/09/27 12:44:44;;;;;;;2.95;1.48;;;;;;;29.02;53.82;100718.16;8254317;28;20510;-64
2023/09/27 12:48:44;;;;;;;4.53;1.88;;;;;;;28.82;54.26;100703.94;8254506;28;20069;-62
2023/09/27 12:52:45;;;;;;;2.53;1.40;;;;;;;28.70;55.22;100700.41;8246346;28;20192;-62
2023/09/27 12:56:45;;;;;;;3.08;1.92;;;;;;;28.58;53.89;100703.25;8251805;28;20093;-62
2023/09/27 13:00:46;;;;;;;3.53;1.80;;;;;;;28.05;54.87;100690.88;8253435;28;20432;-64
2023/09/27 13:04:46;;;;;;;2.13;1.35;;;;;;;28.02;55.02;100691.38;8254137;28;20136;-64
2023/09/27 13:08:48;;;;;;;2.25;1.45;;;;;;;28.17;55.90;100677.75;8251590;28;20093;-64
2023/09/27 13:12:49;;;;;;;5.55;1.80;;;;;;;28.06;55.32;100665.59;8249415;28;20057;-64
2023/09/27 13:16:49;;;;;;;2.67;1.30;;;;;;;28.10;56.27;100666.81;8254805;28;20113;-64
2023/09/27 13:20:51;;;;;;;9.18;2.03;;;;;;;28.16;55.04;100660.25;8252656;28;20491;-63
2023/09/27 13:24:52;;;;;;;2.25;1.48;;;;;;;28.26;54.40;100656.78;8252359;28;20050;-63
2023/09/27 13:28:52;;;;;;;2.50;1.50;;;;;;;28.06;54.77;100637.81;8252581;28;20061;-64
2023/09/27 13:32:53;;;;;;;3.67;1.80;;;;;;;27.90;55.55;100648.94;8266317;28;20120;-64
2023/09/27 13:36:53;;;;;;;3.10;1.80;;;;;;;27.61;55.83;100639.75;8251840;28;20046;-63
2023/09/27 13:40:53;;;;;;;5.60;1.35;;;;;;;27.63;57.56;100634.75;8253020;28;20038;-64
2023/09/27 13:44:54;;;;;;;3.85;1.67;;;;;;;27.66;56.49;100628.69;8253026;28;20034;-59
2023/09/27 13:48:54;;;;;;;3.00;1.60;;;;;;;27.63;57.31;100620.03;8254323;28;20591;-60
2023/09/27 13:52:55;;;;;;;6.90;2.03;;;;;;;27.92;58.10;100624.50;8253559;28;20566;-59
2023/09/27 13:56:55;;;;;;;4.82;1.85;;;;;;;27.99;57.80;100626.00;8252008;28;20252;-61
2023/09/27 14:00:56;;;;;;;3.90;1.80;;;;;;;28.06;57.76;100620.31;8247982;28;20125;-59
2023/09/27 14:04:56;;;;;;;3.85;1.80;;;;;;;28.01;57.78;100617.41;8252367;28;20049;-59
2023/09/27 14:08:57;;;;;;;5.78;1.42;;;;;;;27.91;56.67;100614.47;8245314;28;20060;-59
2023/09/27 14:12:59;;;;;;;4.53;2.00;;;;;;;27.64;57.90;100610.59;8248212;28;20038;-60
2023/09/27 14:17:01;;;;;;;4.30;1.63;;;;;;;27.58;57.88;100600.47;8249367;28;20559;-59
2023/09/27 14:21:03;;;;;;;5.15;1.60;;;;;;;27.73;58.94;100601.63;8252773;28;20031;-60
2023/09/27 14:25:05;;;;;;;2.17;1.70;;;;;;;27.84;58.58;100605.44;8252426;28;20050;-58
2023/09/27 14:29:06;;;;;;;3.70;1.90;;;;;;;27.68;58.80;100606.22;8252445;28;20469;-60
2023/09/27 14:33:08;;;;;;;3.40;2.08;;;;;;;27.78;58.58;100601.69;8252415;28;20111;-60
2023/09/27 14:37:08;;;;;;;3.83;1.73;;;;;;;27.89;57.55;100594.41;8251799;28;20456;-60
2023/09/27 14:41:09;;;;;;;2.70;1.90;;;;;;;27.70;59.45;100598.50;8252795;28;20054;-60
2023/09/27 14:45:09;;;;;;;2.10;1.60;;;;;;;27.56;60.69;100597.09;8251583;28;20049;-60
2023/09/27 14:49:14;;;;;;;4.55;2.15;;;;;;;27.50;60.56;100593.38;8252299;28;20038;-59
2023/09/27 14:53:15;;;;;;;3.10;1.83;;;;;;;27.41;61.20;100582.94;8252253;28;20038;-60
2023/09/27 14:57:16;;;;;;;5.60;2.22;;;;;;;27.50;60.57;100592.56;8267225;28;20050;-60
2023/09/27 15:01:17;;;;;;;3.38;1.80;;;;;;;27.58;59.97;100594.94;8251366;28;20066;-60
2023/09/27 15:05:19;;;;;;;3.90;1.90;;;;;;;27.62;61.10;100591.41;8252852;28;20077;-60
2023/09/27 15:09:19;;;;;;;4.85;2.22;;;;;;;27.57;61.13;100582.13;8251613;28;20041;-60
2023/09/27 15:13:20;;;;;;;5.28;2.00;;;;;;;27.54;61.68;100582.63;8252053;28;20038;-60
2023/09/27 15:17:20;;;;;;;5.43;2.17;;;;;;;27.40;61.01;100575.69;8254366;28;20559;-59
2023/09/27 15:21:21;;;;;;;5.55;2.17;;;;;;;27.26;62.23;100569.59;8244997;28;20133;-62
2023/09/27 15:25:21;;;;;;;3.63;2.20;;;;;;;27.19;61.95;100568.00;8257663;28;20038;-61
2023/09/27 15:29:22;;;;;;;3.92;1.80;;;;;;;27.02;62.40;100561.56;8254164;28;20585;-61
2023/09/27 15:33:22;;;;;;;3.55;2.08;;;;;;;26.95;63.34;100558.09;8267914;28;20065;-60
2023/09/27 15:37:23;;;;;;;2.95;2.10;;;;;;;27.00;62.65;100550.72;8256260;28;20042;-61
2023/09/27 15:41:23;;;;;;;4.38;1.73;;;;;;;26.95;63.36;100555.34;8259864;28;20093;-61
2023/09/27 15:45:24;;;;;;;4.07;2.20;;;;;;;26.97;63.43;100553.13;8258790;28;20038;-61
2023/09/27 15:49:24;;;;;;;2.90;1.92;;;;;;;26.88;63.68;100547.13;8257851;28;20052;-60
2023/09/27 15:53:29;;;;;;;3.83;2.20;;;;;;;26.66;64.59;100544.16;8256563;28;20097;-59
2023/09/27 15:57:30;;;;;;;4.38;2.42;;;;;;;26.50;65.04;100542.13;8257087;28;20704;-60
2023/09/27 16:01:30;;;;;;;4.78;2.63;;;;;;;26.30;65.84;100543.59;8255953;28;20482;-60
2023/09/27 16:05:31;;;;;;;4.15;2.40;;;;;;;26.15;66.38;100540.47;8258438;28;20038;-62
2023/09/27 16:09:31;;;;;;;6.15;2.63;;;;;;;26.12;66.76;100538.16;8256683;28;20354;-62
2023/09/27 16:13:32;;;;;;;4.90;3.00;;;;;;;25.91;67.38;100547.88;8258413;28;20058;-61
2023/09/27 16:17:32;;;;;;;5.03;2.60;;;;;;;25.70;67.89;100544.84;8254863;28;20492;-61
2023/09/27 16:21:33;;;;;;;7.25;2.55;;;;;;;25.52;68.72;100545.75;8254899;28;20070;-61
2023/09/27 16:25:35;;;;;;;6.00;2.45;;;;;;;25.38;68.68;100547.06;8254346;28;20042;-61
2023/09/27 16:29:36;;;;;;;16.92;3.00;;;;;;;25.50;68.40;100545.19;8253513;28;20064;-61
2023/09/27 16:33:37;;;;;;;5.90;2.70;;;;;;;25.49;68.46;100549.00;8255452;28;20104;-61
2023/09/27 16:37:38;;;;;;;6.25;2.63;;;;;;;25.32;69.18;100541.63;8254375;28;20677;-61
2023/09/27 16:41:38;;;;;;;4.05;2.67;;;;;;;25.18;70.17;100548.41;8253727;28;20046;-62
2023/09/27 16:45:39;;;;;;;4.70;2.85;;;;;;;25.02;71.25;100547.13;8254261;28;20046;-63
2023/09/27 16:49:39;;;;;;;4.78;3.05;;;;;;;24.70;72.25;100554.75;8252885;28;20042;-62
2023/09/27 16:53:41;;;;;;;5.85;2.90;;;;;;;24.73;71.99;100536.88;8252151;28;20737;-62
2023/09/27 16:57:41;;;;;;;7.18;2.78;;;;;;;24.46;72.56;100538.22;8251450;28;20332;-62
2023/09/27 17:01:42;;;;;;;8.43;3.35;;;;;;;24.35;73.13;100536.22;8252834;28;20041;-62
2023/09/27 17:05:44;;;;;;;7.72;3.42;;;;;;;24.31;72.06;100535.81;8253141;28;20097;-62
2023/09/27 17:09:44;;;;;;;3.53;2.28;;;;;;;24.19;68.22;100536.81;8254636;28;20512;-62
2023/09/27 17:13:45;;;;;;;2.97;2.20;;;;;;;24.05;66.46;100533.34;8247855;28;20591;-60
2023/09/27 17:17:46;;;;;;;3.90;1.80;;;;;;;24.09;62.71;100533.75;8254601;28;20046;-62
2023/09/27 17:21:46;;;;;;;6.60;1.90;;;;;;;23.97;62.87;100524.50;8253141;28;20058;-60
2023/09/27 17:25:47;;;;;;;6.55;2.25;;;;;;;23.92;64.35;100524.31;8252517;28;20042;-60
2023/09/27 17:29:47;;;;;;;8.88;2.13;;;;;;;23.82;65.76;100527.56;8252530;28;20061;-61
2023/09/27 17:33:48;;;;;;;3.78;2.50;;;;;;;23.72;66.42;100537.47;8252706;28;20053;-59
2023/09/27 17:37:48;;;;;;;6.97;2.58;;;;;;;23.56;66.37;100538.00;8235955;28;20047;-61
2023/09/27 17:41:49;;;;;;;6.40;2.38;;;;;;;23.42;66.06;100537.25;8229869;28;20126;-61
2023/09/27 17:45:51;;;;;;;6.47;2.25;;;;;;;23.28;66.45;100546.69;8245300;28;20038;-66
2023/09/27 17:49:51;;;;;;;5.18;2.05;;;;;;;22.99;68.80;100536.22;8251905;28;20529;-65
2023/09/27 17:53:52;;;;;;;9.18;2.40;;;;;;;22.71;69.80;100527.44;8252789;28;20475;-65
2023/09/27 17:57:52;;;;;;;4.35;2.30;;;;;;;22.68;70.67;100530.63;8248882;28;20050;-65
2023/09/27 18:01:54;;;;;;;8.88;2.63;;;;;;;22.81;69.58;100539.69;8251697;28;20542;-66
2023/09/27 18:05:55;;;;;;;5.50;2.88;;;;;;;22.99;68.83;100545.34;8250408;28;20042;-64
2023/09/27 18:09:55;;;;;;;5.03;2.55;;;;;;;23.11;67.29;100540.81;8249631;28;20046;-66
2023/09/27 18:13:56;;;;;;;3.10;2.25;;;;;;;23.10;66.40;100539.13;8249243;28;20070;-67
2023/09/27 18:17:56;;;;;;;6.63;2.08;;;;;;;22.94;66.20;100539.63;8249632;28;20081;-64
2023/09/27 18:21:57;;;;;;;3.53;1.95;;;;;;;22.63;66.89;100542.31;8248784;28;20043;-65
2023/09/27 18:25:57;;;;;;;4.15;1.98;;;;;;;22.31;68.41;100534.13;8244688;28;20069;-63
2023/09/27 18:29:58;;;;;;;5.38;1.95;;;;;;;22.17;68.39;100541.56;8250403;28;20049;-63
2023/09/27 18:33:59;;;;;;;7.90;2.10;;;;;;;21.99;68.91;100544.13;8250437;28;20506;-63
2023/09/27 18:38:00;;;;;;;7.38;2.45;;;;;;;21.94;68.49;100538.44;8251070;28;20113;-63